createdAt,value
2019-04-19T00:00:37.005Z,0.00
2019-04-19T00:01:55.267Z,0.00
2019-04-19T00:02:58.181Z,0.00
2019-04-19T00:04:11.985Z,0.00
2019-04-19T00:05:20.060Z,0.00
2019-04-19T00:06:34.438Z,0.00
2019-04-19T00:07:47.987Z,0.00
2019-04-19T00:09:09.092Z,0.00
2019-04-19T00:10:18.353Z,0.00
2019-04-19T00:11:23.257Z,0.00
2019-04-19T00:12:35.286Z,0.00
2019-04-19T00:13:36.766Z,0.00
2019-04-19T00:14:46.621Z,0.00
2019-04-19T00:15:58.448Z,0.00
2019-04-19T00:17:13.975Z,0.00
2019-04-19T00:18:20.073Z,0.00
2019-04-19T00:19:44.415Z,0.00
2019-04-19T00:21:03.007Z,0.00
2019-04-19T00:23:13.479Z,0.00
2019-04-19T00:24:14.382Z,0.00
2019-04-19T00:25:23.922Z,0.00
2019-04-19T00:26:35.891Z,0.00
2019-04-19T00:27:51.708Z,0.00
2019-04-19T00:29:00.960Z,0.00
2019-04-19T00:30:18.037Z,0.00
2019-04-19T00:31:31.760Z,0.00
2019-04-19T00:32:41.369Z,0.00
2019-04-19T00:33:45.533Z,0.00
2019-04-19T00:34:50.599Z,0.00
2019-04-19T00:36:02.763Z,0.00
2019-04-19T00:37:12.231Z,0.00
2019-04-19T00:38:40.524Z,0.00
2019-04-19T00:39:48.815Z,0.00
2019-04-19T00:41:04.042Z,0.00
2019-04-19T00:42:10.387Z,0.00
2019-04-19T00:43:28.161Z,0.00
2019-04-19T00:44:43.071Z,0.00
2019-04-19T00:45:43.143Z,0.00
2019-04-19T00:47:01.441Z,0.00
2019-04-19T00:48:02.805Z,0.00
2019-04-19T00:49:14.748Z,0.00
2019-04-19T00:50:22.421Z,0.00
2019-04-19T00:51:40.897Z,0.00
2019-04-19T00:52:51.851Z,0.00
2019-04-19T00:53:55.801Z,0.00
2019-04-19T00:55:04.298Z,0.00
2019-04-19T00:56:13.501Z,0.00
2019-04-19T00:57:26.749Z,0.00
2019-04-19T00:58:31.478Z,0.00
2019-04-19T00:59:43.340Z,0.00
2019-04-19T01:00:49.649Z,0.00
2019-04-19T01:02:07.406Z,0.00
2019-04-19T01:03:14.283Z,0.00
2019-04-19T01:04:25.771Z,0.00
2019-04-19T01:05:42.424Z,0.00
2019-04-19T01:06:49.882Z,0.00
2019-04-19T01:07:54.313Z,0.00
2019-04-19T01:09:22.731Z,0.00
2019-04-19T01:10:31.365Z,0.00
2019-04-19T01:11:35.973Z,0.00
2019-04-19T01:12:52.517Z,0.00
2019-04-19T01:14:00.970Z,0.00
2019-04-19T01:15:10.646Z,0.00
2019-04-19T01:16:21.162Z,0.00
2019-04-19T01:17:34.887Z,0.00
2019-04-19T01:18:43.319Z,0.00
2019-04-19T01:19:47.996Z,0.00
2019-04-19T01:20:54.208Z,0.00
2019-04-19T01:22:11.806Z,0.00
2019-04-19T01:23:17.057Z,0.00
2019-04-19T01:24:33.334Z,0.00
2019-04-19T01:25:37.168Z,0.00
2019-04-19T01:26:51.017Z,0.00
2019-04-19T01:28:06.192Z,0.00
2019-04-19T01:29:12.418Z,0.00
2019-04-19T01:30:26.607Z,0.00
2019-04-19T01:31:32.224Z,0.00
2019-04-19T01:32:49.607Z,0.00
2019-04-19T01:33:54.594Z,0.00
2019-04-19T01:35:11.447Z,0.00
2019-04-19T01:36:18.949Z,0.00
2019-04-19T01:37:28.275Z,0.00
2019-04-19T01:38:40.933Z,0.00
2019-04-19T01:40:05.904Z,0.00
2019-04-19T01:41:11.873Z,0.00
2019-04-19T01:42:26.478Z,0.00
2019-04-19T01:43:40.921Z,0.00
2019-04-19T01:44:49.634Z,0.00
2019-04-19T01:46:01.012Z,0.00
2019-04-19T01:47:07.883Z,0.00
2019-04-19T01:48:25.980Z,0.00
2019-04-19T01:49:23.270Z,0.00
2019-04-19T01:50:47.602Z,0.00
2019-04-19T01:51:53.090Z,0.00
2019-04-19T01:53:09.712Z,0.00
2019-04-19T01:54:16.335Z,0.00
2019-04-19T01:55:16.921Z,0.00
2019-04-19T01:56:21.320Z,0.00
2019-04-19T01:57:30.454Z,0.00
2019-04-19T01:58:48.110Z,0.00
2019-04-19T01:59:55.412Z,0.00
2019-04-19T02:01:07.792Z,0.00
2019-04-19T02:02:17.454Z,0.00
2019-04-19T02:03:33.425Z,0.00
2019-04-19T02:04:37.693Z,0.00
2019-04-19T02:05:52.720Z,0.00
2019-04-19T02:06:56.855Z,0.00
2019-04-19T02:08:11.115Z,0.00
2019-04-19T02:09:30.342Z,0.00
2019-04-19T02:10:40.639Z,0.00
2019-04-19T02:11:50.476Z,0.00
2019-04-19T02:13:02.888Z,0.00
2019-04-19T02:14:08.638Z,0.00
2019-04-19T02:15:19.491Z,0.00
2019-04-19T02:16:26.471Z,0.00
2019-04-19T02:17:41.446Z,0.00
2019-04-19T02:18:45.309Z,0.00
2019-04-19T02:20:01.138Z,0.00
2019-04-19T02:21:06.755Z,0.00
2019-04-19T02:22:22.778Z,0.00
2019-04-19T02:23:28.254Z,0.00
2019-04-19T02:24:45.317Z,0.00
2019-04-19T02:25:52.605Z,0.00
2019-04-19T02:27:04.744Z,0.00
2019-04-19T02:28:15.920Z,0.00
2019-04-19T02:29:26.590Z,0.00
2019-04-19T02:30:48.047Z,0.00
2019-04-19T02:32:24.760Z,0.00
2019-04-19T02:33:27.647Z,0.00
2019-04-19T02:35:47.904Z,0.00
2019-04-19T02:37:00.566Z,0.00
2019-04-19T02:38:03.771Z,0.00
2019-04-19T02:41:34.645Z,0.00
2019-04-19T02:42:44.508Z,0.00
2019-04-19T02:44:00.919Z,0.00
2019-04-19T02:48:48.073Z,0.00
2019-04-19T02:50:12.987Z,0.00
2019-04-19T02:51:17.446Z,0.00
2019-04-19T02:53:26.313Z,0.00
2019-04-19T02:57:02.081Z,0.00
2019-04-19T02:59:30.834Z,0.00
2019-04-19T03:00:39.576Z,0.00
2019-04-19T03:01:44.832Z,0.00
2019-04-19T03:02:53.245Z,0.00
2019-04-19T03:04:15.929Z,0.00
2019-04-19T03:06:13.334Z,0.00
2019-04-19T03:07:09.139Z,0.00
2019-04-19T03:08:18.648Z,0.00
2019-04-19T03:09:34.685Z,0.00
2019-04-19T03:10:53.688Z,0.00
2019-04-19T03:12:03.505Z,0.00
2019-04-19T03:13:19.954Z,0.00
2019-04-19T03:14:24.551Z,0.00
2019-04-19T03:15:44.150Z,0.00
2019-04-19T03:16:51.142Z,0.00
2019-04-19T03:18:03.618Z,0.00
2019-04-19T03:19:09.462Z,0.00
2019-04-19T03:20:24.391Z,0.00
2019-04-19T03:21:31.935Z,0.00
2019-04-19T03:22:46.950Z,0.00
2019-04-19T03:23:56.620Z,0.00
2019-04-19T03:25:06.586Z,0.00
2019-04-19T03:26:17.159Z,0.00
2019-04-19T03:27:17.952Z,0.00
2019-04-19T03:28:34.102Z,0.00
2019-04-19T03:29:38.835Z,0.00
2019-04-19T03:31:20.727Z,0.00
2019-04-19T03:32:35.299Z,0.00
2019-04-19T03:34:51.409Z,0.00
2019-04-19T03:35:49.883Z,0.00
2019-04-19T03:36:50.399Z,0.00
2019-04-19T03:38:06.954Z,0.00
2019-04-19T03:39:23.174Z,0.00
2019-04-19T03:40:34.741Z,0.00
2019-04-19T03:42:51.579Z,0.00
2019-04-19T03:44:03.793Z,0.00
2019-04-19T03:45:13.805Z,0.00
2019-04-19T03:46:19.039Z,0.00
2019-04-19T03:47:42.512Z,0.00
2019-04-19T03:48:43.870Z,0.00
2019-04-19T03:49:52.397Z,0.00
2019-04-19T03:51:18.480Z,0.00
2019-04-19T03:52:21.907Z,4.00
2019-04-19T03:53:34.729Z,4.00
2019-04-19T03:54:33.364Z,0.00
2019-04-19T03:55:57.804Z,4.00
2019-04-19T03:56:59.238Z,4.00
2019-04-19T03:58:01.379Z,8.00
2019-04-19T03:59:03.454Z,8.00
2019-04-19T04:00:15.303Z,8.00
2019-04-19T04:01:29.818Z,12.00
2019-04-19T04:02:41.128Z,12.00
2019-04-19T04:03:49.446Z,16.00
2019-04-19T04:05:02.646Z,20.00
2019-04-19T04:06:08.440Z,20.00
2019-04-19T04:07:22.806Z,28.00
2019-04-19T04:08:32.359Z,32.00
2019-04-19T04:09:46.797Z,36.00
2019-04-19T04:10:52.085Z,44.00
2019-04-19T04:12:18.406Z,52.00
2019-04-19T04:13:25.535Z,64.00
2019-04-19T04:14:32.033Z,72.00
2019-04-19T04:15:47.900Z,84.00
2019-04-19T04:16:49.022Z,100.00
2019-04-19T04:17:56.390Z,116.00
2019-04-19T04:19:06.780Z,132.00
2019-04-19T04:20:17.788Z,148.00
2019-04-19T04:21:34.493Z,172.00
2019-04-19T04:22:43.532Z,196.00
2019-04-19T04:24:02.327Z,216.00
2019-04-19T04:25:09.410Z,244.00
2019-04-19T04:26:14.770Z,272.00
2019-04-19T04:27:38.988Z,304.00
2019-04-19T04:28:50.356Z,332.00
2019-04-19T04:29:57.358Z,364.00
2019-04-19T04:31:05.837Z,400.00
2019-04-19T04:32:15.747Z,436.00
2019-04-19T04:33:30.103Z,472.00
2019-04-19T04:34:38.530Z,512.00
2019-04-19T04:35:53.322Z,548.00
2019-04-19T04:37:04.845Z,592.00
2019-04-19T04:38:10.374Z,632.00
2019-04-19T04:39:11.248Z,676.00
2019-04-19T04:40:21.116Z,720.00
2019-04-19T04:41:33.265Z,760.00
2019-04-19T04:42:58.709Z,808.00
2019-04-19T04:44:13.486Z,848.00
2019-04-19T04:45:39.889Z,896.00
2019-04-19T04:46:38.825Z,940.00
2019-04-19T04:47:43.539Z,984.00
2019-04-19T04:48:55.302Z,1028.00
2019-04-19T04:50:11.300Z,1072.00
2019-04-19T04:51:15.396Z,1116.00
2019-04-19T04:52:15.170Z,1160.00
2019-04-19T04:53:21.334Z,1200.00
2019-04-19T04:54:31.379Z,1248.00
2019-04-19T04:55:46.393Z,1284.00
2019-04-19T04:57:02.253Z,1328.00
2019-04-19T04:58:06.652Z,1372.00
2019-04-19T04:59:18.916Z,1412.00
2019-04-19T05:00:32.007Z,1456.00
2019-04-19T05:01:47.584Z,1496.00
2019-04-19T05:03:03.826Z,1536.00
2019-04-19T05:04:12.786Z,1576.00
2019-04-19T05:05:25.864Z,1612.00
2019-04-19T05:06:35.343Z,1652.00
2019-04-19T05:07:52.661Z,1692.00
2019-04-19T05:08:59.340Z,1728.00
2019-04-19T05:10:12.563Z,1764.00
2019-04-19T05:11:22.759Z,1800.00
2019-04-19T05:12:44.606Z,1832.00
2019-04-19T05:13:43.729Z,1868.00
2019-04-19T05:14:48.972Z,1900.00
2019-04-19T05:16:06.654Z,1932.00
2019-04-19T05:17:27.552Z,1968.00
2019-04-19T05:18:24.835Z,2000.00
2019-04-19T05:19:41.618Z,2036.00
2019-04-19T05:20:45.967Z,2060.00
2019-04-19T05:21:57.632Z,2092.00
2019-04-19T05:23:12.264Z,2124.00
2019-04-19T05:24:21.092Z,2152.00
2019-04-19T05:25:37.357Z,2184.00
2019-04-19T05:26:52.617Z,2212.00
2019-04-19T05:27:55.296Z,2240.00
2019-04-19T05:28:59.748Z,2268.00
2019-04-19T05:29:57.839Z,2296.00
2019-04-19T05:31:10.674Z,2324.00
2019-04-19T05:32:25.623Z,2348.00
2019-04-19T05:33:44.074Z,2380.00
2019-04-19T05:34:58.677Z,2404.00
2019-04-19T05:36:11.108Z,2432.00
2019-04-19T05:37:14.978Z,2456.00
2019-04-19T05:38:30.450Z,2484.00
2019-04-19T05:39:41.334Z,2508.00
2019-04-19T05:40:47.465Z,2532.00
2019-04-19T05:41:58.853Z,2552.00
2019-04-19T05:43:17.392Z,2576.00
2019-04-19T05:44:31.204Z,2600.00
2019-04-19T05:45:38.008Z,2624.00
2019-04-19T05:46:51.740Z,2640.00
2019-04-19T05:47:49.265Z,2664.00
2019-04-19T05:49:02.674Z,2684.00
2019-04-19T05:50:23.435Z,2712.00
2019-04-19T05:51:35.811Z,2732.00
2019-04-19T05:52:39.435Z,2752.00
2019-04-19T05:53:39.468Z,2776.00
2019-04-19T05:54:43.011Z,2796.00
2019-04-19T05:55:52.891Z,2820.00
2019-04-19T05:57:25.642Z,2848.00
2019-04-19T05:58:21.406Z,2864.00
2019-04-19T05:59:37.998Z,2888.00
2019-04-19T06:00:51.843Z,2904.00
2019-04-19T06:02:03.998Z,2924.00
2019-04-19T06:03:13.463Z,2944.00
2019-04-19T06:04:26.470Z,2964.00
2019-04-19T06:05:43.314Z,2984.00
2019-04-19T06:06:53.941Z,3008.00
2019-04-19T06:07:54.859Z,3024.00
2019-04-19T06:08:54.074Z,3040.00
2019-04-19T06:10:06.428Z,3060.00
2019-04-19T06:11:21.616Z,3076.00
2019-04-19T06:12:28.734Z,3092.00
2019-04-19T06:13:42.452Z,3112.00
2019-04-19T06:15:10.385Z,3128.00
2019-04-19T06:16:15.443Z,3144.00
2019-04-19T06:17:24.897Z,3160.00
2019-04-19T06:18:31.572Z,3180.00
2019-04-19T06:19:44.539Z,3204.00
2019-04-19T06:21:04.167Z,3220.00
2019-04-19T06:22:07.042Z,3236.00
2019-04-19T06:23:25.237Z,3256.00
2019-04-19T06:24:31.670Z,3268.00
2019-04-19T06:25:57.236Z,3292.00
2019-04-19T06:27:00.813Z,3312.00
2019-04-19T06:28:15.463Z,3328.00
2019-04-19T06:29:14.882Z,3348.00
2019-04-19T06:30:27.708Z,3368.00
2019-04-19T06:31:39.442Z,3380.00
2019-04-19T06:32:49.538Z,3388.00
2019-04-19T06:34:01.484Z,3404.00
2019-04-19T06:35:05.390Z,3420.00
2019-04-19T06:36:06.011Z,3440.00
2019-04-19T06:37:19.328Z,3448.00
2019-04-19T06:38:24.787Z,3464.00
2019-04-19T06:39:35.358Z,3476.00
2019-04-19T06:40:55.529Z,3496.00
2019-04-19T06:42:02.624Z,3516.00
2019-04-19T06:43:14.264Z,3532.00
2019-04-19T06:44:43.556Z,3548.00
2019-04-19T06:45:49.187Z,3564.00
2019-04-19T06:47:59.114Z,3588.00
2019-04-19T06:49:11.531Z,3600.00
2019-04-19T06:50:15.212Z,3612.00
2019-04-19T06:51:33.326Z,3628.00
2019-04-19T06:52:37.937Z,3640.00
2019-04-19T06:53:53.871Z,3660.00
2019-04-19T06:54:57.870Z,3684.00
2019-04-19T06:56:16.315Z,3700.00
2019-04-19T06:57:27.340Z,3712.00
2019-04-19T06:58:39.179Z,3728.00
2019-04-19T06:59:55.118Z,3748.00
2019-04-19T07:01:04.553Z,3748.00
2019-04-19T07:02:03.977Z,3764.00
2019-04-19T07:03:14.765Z,3780.00
2019-04-19T07:04:26.098Z,3796.00
2019-04-19T07:05:47.801Z,3816.00
2019-04-19T07:07:09.688Z,3828.00
2019-04-19T07:08:30.055Z,3840.00
2019-04-19T07:09:37.135Z,3852.00
2019-04-19T07:11:56.476Z,3884.00
2019-04-19T07:13:03.056Z,3900.00
2019-04-19T07:14:03.938Z,3920.00
2019-04-19T07:15:42.401Z,3936.00
2019-04-19T07:16:40.909Z,3956.00
2019-04-19T07:17:46.001Z,3972.00
2019-04-19T07:18:49.784Z,3984.00
2019-04-19T07:20:03.157Z,3996.00
2019-04-19T07:21:26.322Z,4020.00
2019-04-19T07:22:27.938Z,4040.00
2019-04-19T07:23:46.456Z,4064.00
2019-04-19T07:25:01.468Z,4084.00
2019-04-19T07:26:11.726Z,4104.00
2019-04-19T07:27:12.501Z,4128.00
2019-04-19T07:28:14.577Z,4156.00
2019-04-19T07:29:17.641Z,4180.00
2019-04-19T07:30:28.839Z,4204.00
2019-04-19T07:31:40.182Z,4232.00
2019-04-19T07:32:59.632Z,4244.00
2019-04-19T07:34:08.777Z,4256.00
2019-04-19T07:35:36.951Z,4276.00
2019-04-19T07:36:44.653Z,4292.00
2019-04-19T07:37:52.224Z,4320.00
2019-04-19T07:39:03.562Z,4336.00
2019-04-19T07:40:17.540Z,4360.00
2019-04-19T07:41:24.013Z,4396.00
2019-04-19T07:42:33.691Z,4432.00
2019-04-19T07:43:44.572Z,4456.00
2019-04-19T07:44:50.613Z,4484.00
2019-04-19T07:46:08.288Z,4496.00
2019-04-19T07:47:13.608Z,4528.00
2019-04-19T07:48:17.300Z,4548.00
2019-04-19T07:49:23.318Z,4576.00
2019-04-19T07:51:54.754Z,4636.00
2019-04-19T07:52:58.725Z,4664.00
2019-04-19T07:54:13.600Z,4696.00
2019-04-19T07:55:17.819Z,4712.00
2019-04-19T07:56:38.996Z,4732.00
2019-04-19T07:58:12.217Z,4748.00
2019-04-19T07:59:13.146Z,4752.00
2019-04-19T08:00:36.879Z,4748.00
2019-04-19T08:01:45.349Z,4800.00
2019-04-19T08:02:49.672Z,4820.00
2019-04-19T08:05:11.435Z,4892.00
2019-04-19T08:07:41.429Z,4956.00
2019-04-19T08:11:08.009Z,5080.00
2019-04-19T08:12:18.531Z,5112.00
2019-04-19T08:15:55.115Z,5284.00
2019-04-19T08:28:31.166Z,5916.00
2019-04-19T08:29:43.853Z,6004.00
2019-04-19T08:30:50.407Z,6052.00
2019-04-19T08:31:55.778Z,6124.00
2019-04-19T08:33:06.686Z,6196.00
2019-04-19T08:34:20.903Z,6288.00
2019-04-19T08:35:31.929Z,6416.00
2019-04-19T08:36:47.490Z,6532.00
2019-04-19T08:37:52.182Z,6772.00
2019-04-19T08:39:17.117Z,7144.00
2019-04-19T08:40:32.348Z,10308.00
2019-04-19T08:41:39.786Z,13680.00
2019-04-19T08:42:54.084Z,18720.00
2019-04-19T08:44:00.466Z,50944.00
2019-04-19T08:45:01.736Z,68832.00
2019-04-19T08:46:09.051Z,69152.00
2019-04-19T08:47:27.845Z,68448.00
2019-04-19T08:48:41.310Z,63712.00
2019-04-19T08:49:44.834Z,62272.00
2019-04-19T08:50:55.039Z,68224.00
2019-04-19T08:52:07.836Z,67840.00
2019-04-19T08:53:33.545Z,68960.00
2019-04-19T08:54:47.711Z,65088.00
2019-04-19T08:55:58.208Z,69088.00
2019-04-19T08:56:57.437Z,66656.00
2019-04-19T08:58:07.116Z,70400.00
2019-04-19T09:00:51.815Z,76512.00
2019-04-19T09:01:56.082Z,70144.00
2019-04-19T09:03:00.193Z,70848.00
2019-04-19T09:04:20.253Z,71072.00
2019-04-19T09:05:27.283Z,75392.00
2019-04-19T09:07:30.526Z,75296.00
2019-04-19T09:08:05.654Z,74848.00
2019-04-19T09:08:59.812Z,77728.00
2019-04-19T09:11:26.272Z,77888.00
2019-04-19T09:12:34.281Z,72864.00
2019-04-19T09:13:52.285Z,76032.00
2019-04-19T09:15:02.255Z,78944.00
2019-04-19T09:16:11.350Z,78336.00
2019-04-19T09:17:33.001Z,80640.00
2019-04-19T09:18:45.649Z,82144.00
2019-04-19T09:20:58.796Z,78016.00
2019-04-19T09:22:11.169Z,78944.00
2019-04-19T09:23:21.985Z,77312.00
2019-04-19T09:24:31.116Z,81120.00
2019-04-19T09:25:41.436Z,76704.00
2019-04-19T09:26:58.791Z,70816.00
2019-04-19T09:28:16.215Z,76288.00
2019-04-19T09:29:32.280Z,67136.00
2019-04-19T09:30:39.399Z,68256.00
2019-04-19T09:31:42.096Z,66816.00
2019-04-19T09:32:41.774Z,66272.00
2019-04-19T09:33:54.639Z,67424.00
2019-04-19T09:35:09.241Z,71136.00
2019-04-19T09:36:20.070Z,83456.00
2019-04-19T09:37:42.772Z,84640.00
2019-04-19T09:38:55.564Z,83648.00
2019-04-19T09:40:03.060Z,93184.00
2019-04-19T09:41:16.516Z,90976.00
2019-04-19T09:42:33.585Z,84896.00
2019-04-19T09:43:42.441Z,83520.00
2019-04-19T09:44:47.982Z,81728.00
2019-04-19T09:45:53.311Z,79360.00
2019-04-19T09:47:06.054Z,80768.00
2019-04-19T09:48:36.508Z,78880.00
2019-04-19T09:49:44.066Z,81536.00
2019-04-19T09:50:54.952Z,80640.00
2019-04-19T09:52:13.458Z,87072.00
2019-04-19T09:53:32.127Z,86464.00
2019-04-19T09:54:39.079Z,87008.00
2019-04-19T09:55:49.870Z,84928.00
2019-04-19T09:56:57.942Z,78144.00
2019-04-19T09:58:14.261Z,76864.00
2019-04-19T09:59:17.244Z,81632.00
2019-04-19T10:00:23.767Z,84576.00
2019-04-19T10:01:37.093Z,87520.00
2019-04-19T10:02:50.775Z,84896.00
2019-04-19T10:03:59.969Z,82112.00
2019-04-19T10:05:08.075Z,75968.00
2019-04-19T10:06:20.705Z,85984.00
2019-04-19T10:07:32.652Z,88448.00
2019-04-19T10:08:45.737Z,84896.00
2019-04-19T10:10:03.987Z,93568.00
2019-04-19T10:11:10.511Z,89632.00
2019-04-19T10:12:21.966Z,88416.00
2019-04-19T10:13:34.373Z,86976.00
2019-04-19T10:14:46.481Z,86720.00
2019-04-19T10:15:58.761Z,96672.00
2019-04-19T10:17:12.292Z,97536.00
2019-04-19T10:18:23.312Z,102400.00
2019-04-19T10:19:36.797Z,104832.00
2019-04-19T10:20:48.889Z,102752.00
2019-04-19T10:22:00.374Z,90944.00
2019-04-19T10:23:13.316Z,88288.00
2019-04-19T10:24:26.444Z,86848.00
2019-04-19T10:25:40.854Z,86336.00
2019-04-19T10:26:50.486Z,87104.00
2019-04-19T10:28:01.814Z,84576.00
2019-04-19T10:29:22.869Z,83424.00
2019-04-19T10:30:26.590Z,86752.00
2019-04-19T10:31:39.720Z,91328.00
2019-04-19T10:32:53.265Z,93184.00
2019-04-19T10:34:05.912Z,93920.00
2019-04-19T10:35:17.491Z,91552.00
2019-04-19T10:36:28.958Z,95584.00
2019-04-19T10:37:41.862Z,94336.00
2019-04-19T10:38:56.523Z,96768.00
2019-04-19T10:40:05.995Z,93280.00
2019-04-19T10:41:19.699Z,97792.00
2019-04-19T10:42:31.460Z,106208.00
2019-04-19T10:43:43.318Z,97952.00
2019-04-19T10:44:56.256Z,96256.00
2019-04-19T10:47:21.141Z,106944.00
2019-04-19T10:48:34.737Z,109440.00
2019-04-19T10:49:51.760Z,98912.00
2019-04-19T10:50:59.509Z,103232.00
2019-04-19T10:52:10.813Z,103136.00
2019-04-19T10:53:24.112Z,92576.00
2019-04-19T10:54:36.326Z,94304.00
2019-04-19T10:55:48.067Z,101856.00
2019-04-19T10:57:00.497Z,102144.00
2019-04-19T10:58:12.922Z,100288.00
2019-04-19T10:59:26.642Z,100384.00
2019-04-19T11:00:39.736Z,95296.00
2019-04-19T11:01:52.162Z,91168.00
2019-04-19T11:03:05.249Z,95456.00
2019-04-19T11:04:17.155Z,94720.00
2019-04-19T11:05:29.037Z,108448.00
2019-04-19T11:06:41.747Z,101120.00
2019-04-19T11:07:53.787Z,91296.00
2019-04-19T11:09:06.819Z,91904.00
2019-04-19T11:10:19.759Z,95200.00
2019-04-19T11:11:31.871Z,96384.00
2019-04-19T11:12:44.743Z,103424.00
2019-04-19T11:13:56.202Z,99392.00
2019-04-19T11:15:08.728Z,92512.00
2019-04-19T11:16:21.806Z,103232.00
2019-04-19T11:17:34.288Z,105280.00
2019-04-19T11:18:47.642Z,95584.00
2019-04-19T11:20:14.513Z,101696.00
2019-04-19T11:21:11.766Z,99616.00
2019-04-19T11:22:24.251Z,100640.00
2019-04-19T11:23:37.866Z,102688.00
2019-04-19T11:24:50.032Z,96864.00
2019-04-19T11:26:03.047Z,93152.00
2019-04-19T11:27:15.203Z,93760.00
2019-04-19T11:28:27.087Z,96000.00
2019-04-19T11:29:40.443Z,98272.00
2019-04-19T11:30:53.331Z,99936.00
2019-04-19T11:32:06.079Z,105792.00
2019-04-19T11:33:19.023Z,108352.00
2019-04-19T11:34:31.359Z,101216.00
2019-04-19T11:35:43.563Z,93984.00
2019-04-19T11:36:55.955Z,104288.00
2019-04-19T11:38:08.959Z,107744.00
2019-04-19T11:39:21.182Z,91968.00
2019-04-19T11:40:33.526Z,97792.00
2019-04-19T11:41:47.214Z,112160.00
2019-04-19T11:42:59.502Z,103328.00
2019-04-19T11:44:17.430Z,107648.00
2019-04-19T11:45:23.862Z,113664.00
2019-04-19T11:46:36.115Z,101888.00
2019-04-19T11:47:49.136Z,100192.00
2019-04-19T11:49:01.734Z,107136.00
2019-04-19T11:50:13.764Z,111072.00
2019-04-19T11:51:25.810Z,98784.00
2019-04-19T11:52:38.229Z,97920.00
2019-04-19T11:53:50.614Z,107424.00
2019-04-19T11:55:04.606Z,96960.00
2019-04-19T11:56:16.435Z,94560.00
2019-04-19T11:57:28.321Z,99328.00
2019-04-19T11:58:40.388Z,106208.00
2019-04-19T11:59:54.575Z,112832.00
2019-04-19T12:01:05.735Z,110304.00
2019-04-19T12:02:17.920Z,105792.00
2019-04-19T12:03:30.042Z,105280.00
2019-04-19T12:04:42.052Z,105344.00
2019-04-19T12:05:55.943Z,108480.00
2019-04-19T12:07:08.211Z,102144.00
2019-04-19T12:08:20.442Z,94368.00
2019-04-19T12:09:32.476Z,97632.00
2019-04-19T12:10:44.420Z,110144.00
2019-04-19T12:11:58.196Z,115744.00
2019-04-19T12:13:10.984Z,105152.00
2019-04-19T12:14:25.225Z,99712.00
2019-04-19T12:15:35.873Z,103264.00
2019-04-19T12:16:47.578Z,108320.00
2019-04-19T12:18:00.026Z,108640.00
2019-04-19T12:19:12.059Z,104864.00
2019-04-19T12:20:24.774Z,105248.00
2019-04-19T12:21:36.972Z,106272.00
2019-04-19T12:22:49.993Z,107808.00
2019-04-19T12:24:01.032Z,107328.00
2019-04-19T12:25:13.475Z,109920.00
2019-04-19T12:26:25.798Z,107936.00
2019-04-19T12:27:39.371Z,101184.00
2019-04-19T12:28:51.280Z,107392.00
2019-04-19T12:30:02.803Z,105920.00
2019-04-19T12:31:15.688Z,103712.00
2019-04-19T12:32:27.710Z,100736.00
2019-04-19T12:33:39.770Z,93216.00
2019-04-19T12:34:52.961Z,86336.00
2019-04-19T12:36:05.501Z,94560.00
2019-04-19T12:37:19.404Z,102752.00
2019-04-19T12:38:33.220Z,100128.00
2019-04-19T12:39:43.476Z,91296.00
2019-04-19T12:40:56.141Z,88480.00
2019-04-19T12:42:08.152Z,104576.00
2019-04-19T12:43:20.756Z,115232.00
2019-04-19T12:44:33.245Z,106336.00
2019-04-19T12:45:47.723Z,86112.00
2019-04-19T12:46:57.536Z,73216.00
2019-04-19T12:48:09.920Z,76928.00
2019-04-19T12:49:22.683Z,75648.00
2019-04-19T12:50:36.997Z,64160.00
2019-04-19T12:51:48.042Z,55840.00
2019-04-19T12:53:00.072Z,53568.00
2019-04-19T12:54:12.121Z,66208.00
2019-04-19T12:55:24.070Z,75968.00
2019-04-19T12:56:36.306Z,68896.00
2019-04-19T12:57:49.914Z,67584.00
2019-04-19T12:59:01.958Z,74816.00
2019-04-19T13:00:14.288Z,74912.00
2019-04-19T13:01:27.916Z,69632.00
2019-04-19T13:02:39.964Z,70144.00
2019-04-19T13:03:52.510Z,73568.00
2019-04-19T13:05:04.563Z,74976.00
2019-04-19T13:06:17.500Z,75520.00
2019-04-19T13:07:28.978Z,78368.00
2019-04-19T13:08:41.201Z,70336.00
2019-04-19T13:09:53.264Z,75296.00
2019-04-19T13:11:07.041Z,85088.00
2019-04-19T13:12:19.000Z,76448.00
2019-04-19T13:13:31.756Z,69344.00
2019-04-19T13:14:43.844Z,70368.00
2019-04-19T13:15:56.548Z,74944.00
2019-04-19T13:17:08.328Z,83296.00
2019-04-19T13:18:20.361Z,78528.00
2019-04-19T13:19:33.300Z,72704.00
2019-04-19T13:20:46.019Z,78464.00
2019-04-19T13:21:58.536Z,85312.00
2019-04-19T13:23:10.469Z,81728.00
2019-04-19T13:24:22.523Z,75840.00
2019-04-19T13:25:35.282Z,79968.00
2019-04-19T13:26:47.427Z,74944.00
2019-04-19T13:28:01.252Z,77024.00
2019-04-19T13:29:11.486Z,84256.00
2019-04-19T13:30:31.469Z,72704.00
2019-04-19T13:31:36.574Z,75744.00
2019-04-19T13:32:47.771Z,80896.00
2019-04-19T13:34:00.563Z,77856.00
2019-04-19T13:35:13.041Z,78944.00
2019-04-19T13:36:24.922Z,76896.00
2019-04-19T13:37:37.010Z,75424.00
2019-04-19T13:38:49.226Z,74848.00
2019-04-19T13:40:02.036Z,81920.00
2019-04-19T13:41:14.561Z,78880.00
2019-04-19T13:42:26.770Z,71904.00
2019-04-19T13:43:38.645Z,74592.00
2019-04-19T13:44:50.626Z,69728.00
2019-04-19T13:46:04.398Z,65568.00
2019-04-19T13:47:16.447Z,73056.00
2019-04-19T13:48:28.292Z,70624.00
2019-04-19T13:49:40.321Z,69024.00
2019-04-19T13:50:52.428Z,70368.00
2019-04-19T13:52:04.688Z,73472.00
2019-04-19T13:53:16.940Z,76704.00
2019-04-19T13:54:30.320Z,68256.00
2019-04-19T13:55:42.495Z,62656.00
2019-04-19T13:56:55.439Z,72256.00
2019-04-19T13:58:07.385Z,64544.00
2019-04-19T13:59:20.099Z,70656.00
2019-04-19T14:00:31.741Z,72832.00
2019-04-19T14:01:43.978Z,68768.00
2019-04-19T14:02:56.216Z,75712.00
2019-04-19T14:04:08.504Z,73120.00
2019-04-19T14:05:20.702Z,57632.00
2019-04-19T14:06:32.899Z,11104.00
2019-04-19T14:07:45.360Z,9908.00
2019-04-19T14:08:57.557Z,43616.00
2019-04-19T14:10:09.602Z,70144.00
2019-04-19T14:11:21.455Z,26432.00
2019-04-19T14:12:33.431Z,7616.00
2019-04-19T14:13:50.845Z,10828.00
2019-04-19T14:14:57.438Z,7932.00
2019-04-19T14:16:09.431Z,43872.00
2019-04-19T14:17:22.033Z,46400.00
2019-04-19T14:18:33.344Z,70656.00
2019-04-19T14:19:45.296Z,57120.00
2019-04-19T14:20:57.603Z,56640.00
2019-04-19T14:22:09.226Z,56096.00
2019-04-19T14:23:21.680Z,48800.00
2019-04-19T14:24:33.421Z,51200.00
2019-04-19T14:25:45.391Z,67936.00
2019-04-19T14:26:58.919Z,67904.00
2019-04-19T14:28:09.447Z,70976.00
2019-04-19T14:29:21.420Z,81344.00
2019-04-19T14:30:33.318Z,80416.00
2019-04-19T14:31:46.219Z,78336.00
2019-04-19T14:32:57.947Z,81824.00
2019-04-19T14:34:09.138Z,71808.00
2019-04-19T14:35:21.741Z,68256.00
2019-04-19T14:36:34.091Z,74816.00
2019-04-19T14:37:46.061Z,67712.00
2019-04-19T14:38:58.307Z,66528.00
2019-04-19T14:40:10.205Z,64672.00
2019-04-19T14:41:21.261Z,62016.00
2019-04-19T14:42:33.251Z,26656.00
2019-04-19T14:43:45.239Z,27424.00
2019-04-19T14:44:58.229Z,35456.00
2019-04-19T14:46:10.960Z,9792.00
2019-04-19T14:47:21.674Z,7340.00
2019-04-19T14:48:36.952Z,23200.00
2019-04-19T14:49:47.091Z,46048.00
2019-04-19T14:51:03.183Z,29760.00
2019-04-19T14:52:10.255Z,48704.00
2019-04-19T14:53:22.384Z,39104.00
2019-04-19T14:54:35.062Z,48032.00
2019-04-19T14:55:46.244Z,48576.00
2019-04-19T14:56:58.672Z,41856.00
2019-04-19T14:58:09.772Z,31424.00
2019-04-19T14:59:21.603Z,21824.00
2019-04-19T15:00:34.555Z,12076.00
2019-04-19T15:01:45.230Z,10864.00
2019-04-19T15:02:58.717Z,11572.00
2019-04-19T15:04:09.225Z,9428.00
2019-04-19T15:05:21.501Z,9560.00
2019-04-19T15:06:35.699Z,7384.00
2019-04-19T15:07:46.454Z,6272.00
2019-04-19T15:08:57.750Z,6004.00
2019-04-19T15:10:11.455Z,6088.00
2019-04-19T15:11:21.951Z,6704.00
2019-04-19T15:12:34.397Z,8012.00
2019-04-19T15:13:45.068Z,6520.00
2019-04-19T15:14:57.656Z,8092.00
2019-04-19T15:16:08.590Z,5704.00
2019-04-19T15:17:19.802Z,5296.00